sensor_id;sensor_type;location;lat;lon;timestamp;pressure;altitude;pressure_sealevel;temperature;humidity
26376;BME280;30544;42.196;24.336;2023-02-13T00:00:47;101070.97;;;3.01;64.35
26376;BME280;30544;42.196;24.336;2023-02-13T00:03:15;101077.28;;;3.29;64.24
26376;BME280;30544;42.196;24.336;2023-02-13T00:05:42;101083.44;;;3.14;64.71
26376;BME280;30544;42.196;24.336;2023-02-13T00:08:09;101084.72;;;3.19;63.92
26376;BME280;30544;42.196;24.336;2023-02-13T00:10:36;101082.28;;;3.16;64.47
26376;BME280;30544;42.196;24.336;2023-02-13T00:13:03;101083.41;;;3.23;63.54
26376;BME280;30544;42.196;24.336;2023-02-13T00:15:30;101082.84;;;3.20;63.83
26376;BME280;30544;42.196;24.336;2023-02-13T00:17:56;101078.22;;;3.38;63.84
26376;BME280;30544;42.196;24.336;2023-02-13T00:20:24;101075.16;;;3.41;64.10
26376;BME280;30544;42.196;24.336;2023-02-13T00:22:51;101083.41;;;3.23;64.45
26376;BME280;30544;42.196;24.336;2023-02-13T00:25:18;101080.84;;;3.12;64.60
26376;BME280;30544;42.196;24.336;2023-02-13T00:27:45;101090.53;;;2.89;65.35
26376;BME280;30544;42.196;24.336;2023-02-13T00:30:13;101085.63;;;2.92;64.51
26376;BME280;30544;42.196;24.336;2023-02-13T00:32:39;101083.81;;;3.01;65.23
26376;BME280;30544;42.196;24.336;2023-02-13T00:35:06;101073.63;;;2.93;64.64
26376;BME280;30544;42.196;24.336;2023-02-13T00:37:35;101088.66;;;2.89;65.35
26376;BME280;30544;42.196;24.336;2023-02-13T00:40:02;101082.66;;;3.04;65.32
26376;BME280;30544;42.196;24.336;2023-02-13T00:42:29;101086.63;;;2.91;65.49
26376;BME280;30544;42.196;24.336;2023-02-13T00:44:55;101085.53;;;3.02;65.12
26376;BME280;30544;42.196;24.336;2023-02-13T00:47:22;101090.47;;;2.98;64.87
26376;BME280;30544;42.196;24.336;2023-02-13T00:49:49;101089.69;;;2.88;65.40
26376;BME280;30544;42.196;24.336;2023-02-13T00:52:16;101086.97;;;3.06;65.01
26376;BME280;30544;42.196;24.336;2023-02-13T00:54:44;101072.56;;;3.04;65.58
26376;BME280;30544;42.196;24.336;2023-02-13T00:57:12;101095.72;;;2.92;65.20
26376;BME280;30544;42.196;24.336;2023-02-13T00:59:38;101085.03;;;2.71;65.57
26376;BME280;30544;42.196;24.336;2023-02-13T01:02:05;101096.41;;;2.66;65.84
26376;BME280;30544;42.196;24.336;2023-02-13T01:04:32;101104.53;;;2.58;65.88
26376;BME280;30544;42.196;24.336;2023-02-13T01:06:59;101104.38;;;2.60;65.10
26376;BME280;30544;42.196;24.336;2023-02-13T01:09:25;101098.19;;;2.58;64.86
26376;BME280;30544;42.196;24.336;2023-02-13T01:11:54;101096.19;;;2.50;65.98
26376;BME280;30544;42.196;24.336;2023-02-13T01:14:20;101107.78;;;2.44;65.85
26376;BME280;30544;42.196;24.336;2023-02-13T01:16:47;101105.88;;;2.54;66.21
26376;BME280;30544;42.196;24.336;2023-02-13T01:19:14;101108.06;;;2.41;66.79
26376;BME280;30544;42.196;24.336;2023-02-13T01:21:41;101109.16;;;2.11;67.75
26376;BME280;30544;42.196;24.336;2023-02-13T01:24:09;101115.41;;;2.03;67.98
26376;BME280;30544;42.196;24.336;2023-02-13T01:26:35;101105.88;;;2.07;67.92
26376;BME280;30544;42.196;24.336;2023-02-13T01:29:04;101110.88;;;2.22;67.96
26376;BME280;30544;42.196;24.336;2023-02-13T01:31:31;101108.06;;;2.41;67.02
26376;BME280;30544;42.196;24.336;2023-02-13T01:33:58;101099.72;;;2.33;67.06
26376;BME280;30544;42.196;24.336;2023-02-13T01:36:25;101111.53;;;2.43;66.49
26376;BME280;30544;42.196;24.336;2023-02-13T01:38:53;101100.72;;;2.41;66.45
26376;BME280;30544;42.196;24.336;2023-02-13T01:41:20;101113.16;;;2.36;66.58
26376;BME280;30544;42.196;24.336;2023-02-13T01:43:50;101114.38;;;2.51;66.39
26376;BME280;30544;42.196;24.336;2023-02-13T01:46:22;101119.13;;;2.49;67.90
26376;BME280;30544;42.196;24.336;2023-02-13T01:48:52;101115.34;;;2.60;66.45
26376;BME280;30544;42.196;24.336;2023-02-13T01:51:24;101116.81;;;2.54;67.40
26376;BME280;30544;42.196;24.336;2023-02-13T01:53:58;101119.25;;;2.57;66.31
26376;BME280;30544;42.196;24.336;2023-02-13T01:56:29;101127.06;;;2.52;66.90
26376;BME280;30544;42.196;24.336;2023-02-13T01:59:01;101123.00;;;2.56;67.11
26376;BME280;30544;42.196;24.336;2023-02-13T02:01:31;101119.03;;;2.68;68.08
26376;BME280;30544;42.196;24.336;2023-02-13T02:04:04;101116.91;;;2.62;66.46
26376;BME280;30544;42.196;24.336;2023-02-13T02:06:35;101126.13;;;2.71;66.04
26376;BME280;30544;42.196;24.336;2023-02-13T02:09:05;101123.22;;;2.72;65.96
26376;BME280;30544;42.196;24.336;2023-02-13T02:11:38;101117.38;;;2.85;65.59
26376;BME280;30544;42.196;24.336;2023-02-13T02:14:08;101124.63;;;2.86;66.36
26376;BME280;30544;42.196;24.336;2023-02-13T02:16:36;101129.81;;;2.80;66.05
26376;BME280;30544;42.196;24.336;2023-02-13T02:19:04;101120.91;;;2.78;65.88
26376;BME280;30544;42.196;24.336;2023-02-13T02:21:44;101131.91;;;2.95;65.98
26376;BME280;30544;42.196;24.336;2023-02-13T02:24:30;101131.47;;;2.72;65.99
26376;BME280;30544;42.196;24.336;2023-02-13T02:27:13;101137.69;;;2.65;67.63
26376;BME280;30544;42.196;24.336;2023-02-13T02:30:04;101139.78;;;2.81;66.96
26376;BME280;30544;42.196;24.336;2023-02-13T02:32:57;101141.56;;;2.72;67.03
26376;BME280;30544;42.196;24.336;2023-02-13T02:35:34;101142.25;;;2.74;66.35
26376;BME280;30544;42.196;24.336;2023-02-13T02:38:20;101142.06;;;2.85;66.88
26376;BME280;30544;42.196;24.336;2023-02-13T02:40:57;101148.53;;;2.84;66.25
26376;BME280;30544;42.196;24.336;2023-02-13T02:43:43;101148.13;;;2.89;66.52
26376;BME280;30544;42.196;24.336;2023-02-13T02:46:15;101149.88;;;3.08;66.30
26376;BME280;30544;42.196;24.336;2023-02-13T02:48:48;101152.28;;;2.93;66.07
26376;BME280;30544;42.196;24.336;2023-02-13T02:51:56;101141.19;;;2.85;66.58
26376;BME280;30544;42.196;24.336;2023-02-13T02:54:31;101143.53;;;3.07;65.30
26376;BME280;30544;42.196;24.336;2023-02-13T02:57:20;101148.31;;;3.05;65.12
26376;BME280;30544;42.196;24.336;2023-02-13T02:59:50;101151.97;;;2.96;66.22
26376;BME280;30544;42.196;24.336;2023-02-13T03:02:35;101156.03;;;3.19;65.84
26376;BME280;30544;42.196;24.336;2023-02-13T03:05:24;101151.50;;;3.00;65.41
26376;BME280;30544;42.196;24.336;2023-02-13T03:08:11;101148.47;;;3.04;68.41
26376;BME280;30544;42.196;24.336;2023-02-13T03:10:38;101152.06;;;3.04;67.43
26376;BME280;30544;42.196;24.336;2023-02-13T03:13:36;101149.56;;;3.11;65.50
26376;BME280;30544;42.196;24.336;2023-02-13T03:16:04;101148.91;;;3.26;65.80
26376;BME280;30544;42.196;24.336;2023-02-13T03:18:52;101146.97;;;3.37;64.74
26376;BME280;30544;42.196;24.336;2023-02-13T03:21:46;101146.22;;;3.17;65.92
26376;BME280;30544;42.196;24.336;2023-02-13T03:24:38;101145.16;;;3.00;66.99
26376;BME280;30544;42.196;24.336;2023-02-13T03:27:10;101145.09;;;3.10;65.65
26376;BME280;30544;42.196;24.336;2023-02-13T03:29:45;101144.16;;;3.19;64.90
26376;BME280;30544;42.196;24.336;2023-02-13T03:32:38;101153.84;;;3.23;65.82
26376;BME280;30544;42.196;24.336;2023-02-13T03:35:20;101150.09;;;3.24;64.71
26376;BME280;30544;42.196;24.336;2023-02-13T03:38:12;101151.53;;;3.18;66.07
26376;BME280;30544;42.196;24.336;2023-02-13T03:40:46;101152.06;;;3.04;66.46
26376;BME280;30544;42.196;24.336;2023-02-13T03:43:30;101151.81;;;2.97;66.28
26376;BME280;30544;42.196;24.336;2023-02-13T03:45:58;101153.31;;;2.82;67.21
26376;BME280;30544;42.196;24.336;2023-02-13T03:48:30;101153.38;;;2.72;66.93
26376;BME280;30544;42.196;24.336;2023-02-13T03:51:13;101165.13;;;2.55;68.04
26376;BME280;30544;42.196;24.336;2023-02-13T03:53:45;101161.69;;;2.53;68.20
26376;BME280;30544;42.196;24.336;2023-02-13T03:56:15;101164.88;;;2.39;68.36
26376;BME280;30544;42.196;24.336;2023-02-13T03:59:02;101161.13;;;2.40;68.84
26376;BME280;30544;42.196;24.336;2023-02-13T04:01:43;101160.13;;;2.41;68.20
26376;BME280;30544;42.196;24.336;2023-02-13T04:04:16;101166.31;;;2.43;68.70
26376;BME280;30544;42.196;24.336;2023-02-13T04:06:50;101169.22;;;2.32;68.36
26376;BME280;30544;42.196;24.336;2023-02-13T04:09:19;101173.00;;;2.11;68.88
26376;BME280;30544;42.196;24.336;2023-02-13T04:11:53;101168.53;;;2.20;69.48
26376;BME280;30544;42.196;24.336;2023-02-13T04:14:24;101161.19;;;2.21;69.67
26376;BME280;30544;42.196;24.336;2023-02-13T04:16:58;101171.69;;;2.16;69.07
26376;BME280;30544;42.196;24.336;2023-02-13T04:19:31;101171.75;;;1.87;70.01
26376;BME280;30544;42.196;24.336;2023-02-13T04:22:00;101170.28;;;1.92;69.43
26376;BME280;30544;42.196;24.336;2023-02-13T04:24:29;101167.25;;;1.95;69.81
26376;BME280;30544;42.196;24.336;2023-02-13T04:26:56;101170.03;;;1.86;70.45
26376;BME280;30544;42.196;24.336;2023-02-13T04:29:25;101168.25;;;1.65;70.78
26376;BME280;30544;42.196;24.336;2023-02-13T04:31:52;101163.94;;;1.43;71.43
26376;BME280;30544;42.196;24.336;2023-02-13T04:34:19;101168.41;;;1.35;72.31
26376;BME280;30544;42.196;24.336;2023-02-13T04:36:46;101170.38;;;1.33;73.32
26376;BME280;30544;42.196;24.336;2023-02-13T04:39:13;101169.97;;;1.47;72.35
26376;BME280;30544;42.196;24.336;2023-02-13T04:41:41;101173.88;;;1.35;72.50
26376;BME280;30544;42.196;24.336;2023-02-13T04:44:08;101168.09;;;1.18;73.39
26376;BME280;30544;42.196;24.336;2023-02-13T04:46:35;101170.94;;;1.17;73.60
26376;BME280;30544;42.196;24.336;2023-02-13T04:49:02;101167.38;;;1.26;73.00
26376;BME280;30544;42.196;24.336;2023-02-13T04:51:29;101175.56;;;1.26;73.33
26376;BME280;30544;42.196;24.336;2023-02-13T04:53:56;101176.69;;;1.14;73.87
26376;BME280;30544;42.196;24.336;2023-02-13T04:56:22;101183.00;;;1.14;74.07
26376;BME280;30544;42.196;24.336;2023-02-13T04:58:51;101176.16;;;1.20;73.28
26376;BME280;30544;42.196;24.336;2023-02-13T05:01:17;101187.91;;;1.11;73.17
26376;BME280;30544;42.196;24.336;2023-02-13T05:03:44;101179.97;;;1.08;73.66
26376;BME280;30544;42.196;24.336;2023-02-13T05:06:11;101180.84;;;1.08;74.33
26376;BME280;30544;42.196;24.336;2023-02-13T05:08:38;101188.63;;;1.13;73.86
26376;BME280;30544;42.196;24.336;2023-02-13T05:11:05;101193.09;;;1.14;73.68
26376;BME280;30544;42.196;24.336;2023-02-13T05:13:32;101185.88;;;1.13;73.48
26376;BME280;30544;42.196;24.336;2023-02-13T05:16:00;101192.22;;;1.04;74.23
26376;BME280;30544;42.196;24.336;2023-02-13T05:18:27;101189.78;;;1.10;73.81
26376;BME280;30544;42.196;24.336;2023-02-13T05:20:54;101189.41;;;0.84;74.22
26376;BME280;30544;42.196;24.336;2023-02-13T05:23:38;101194.75;;;0.96;74.20
26376;BME280;30544;42.196;24.336;2023-02-13T05:26:05;101200.94;;;0.88;74.67
26376;BME280;30544;42.196;24.336;2023-02-13T05:28:32;101212.25;;;0.83;75.40
26376;BME280;30544;42.196;24.336;2023-02-13T05:31:17;101212.13;;;0.85;74.83
26376;BME280;30544;42.196;24.336;2023-02-13T05:33:44;101203.22;;;0.93;74.95
26376;BME280;30544;42.196;24.336;2023-02-13T05:36:11;101212.72;;;0.88;75.43
26376;BME280;30544;42.196;24.336;2023-02-13T05:38:37;101213.59;;;0.89;75.54
26376;BME280;30544;42.196;24.336;2023-02-13T05:41:05;101209.75;;;1.01;75.64
26376;BME280;30544;42.196;24.336;2023-02-13T05:43:32;101219.59;;;1.23;75.01
26376;BME280;30544;42.196;24.336;2023-02-13T05:46:03;101217.91;;;1.41;74.45
26376;BME280;30544;42.196;24.336;2023-02-13T05:48:31;101225.25;;;1.50;74.20
26376;BME280;30544;42.196;24.336;2023-02-13T05:50:58;101225.13;;;1.42;74.05
26376;BME280;30544;42.196;24.336;2023-02-13T05:53:25;101220.75;;;1.30;74.64
26376;BME280;30544;42.196;24.336;2023-02-13T05:55:52;101225.28;;;1.60;74.30
26376;BME280;30544;42.196;24.336;2023-02-13T05:58:19;101233.78;;;1.67;73.35
26376;BME280;30544;42.196;24.336;2023-02-13T06:00:47;101240.44;;;1.74;72.88
26376;BME280;30544;42.196;24.336;2023-02-13T06:03:14;101243.59;;;1.79;73.22
26376;BME280;30544;42.196;24.336;2023-02-13T06:05:42;101232.66;;;1.79;73.91
26376;BME280;30544;42.196;24.336;2023-02-13T06:08:09;101236.84;;;1.93;73.21
26376;BME280;30544;42.196;24.336;2023-02-13T06:10:35;101233.53;;;1.89;72.75
26376;BME280;30544;42.196;24.336;2023-02-13T06:13:02;101235.25;;;1.71;73.54
26376;BME280;30544;42.196;24.336;2023-02-13T06:15:29;101235.97;;;1.83;73.87
26376;BME280;30544;42.196;24.336;2023-02-13T06:17:56;101240.75;;;2.09;71.97
26376;BME280;30544;42.196;24.336;2023-02-13T06:20:22;101243.06;;;2.04;73.21
26376;BME280;30544;42.196;24.336;2023-02-13T06:22:51;101239.00;;;2.08;72.37
26376;BME280;30544;42.196;24.336;2023-02-13T06:25:18;101240.16;;;2.06;73.17
26376;BME280;30544;42.196;24.336;2023-02-13T06:27:45;101234.97;;;2.22;72.84
26376;BME280;30544;42.196;24.336;2023-02-13T06:30:13;101243.47;;;2.38;71.50
26376;BME280;30544;42.196;24.336;2023-02-13T06:32:40;101234.81;;;2.14;72.22
26376;BME280;30544;42.196;24.336;2023-02-13T06:35:07;101234.69;;;2.06;72.87
26376;BME280;30544;42.196;24.336;2023-02-13T06:37:34;101241.31;;;2.23;72.06
26376;BME280;30544;42.196;24.336;2023-02-13T06:40:03;101234.81;;;2.24;72.69
26376;BME280;30544;42.196;24.336;2023-02-13T06:42:30;101247.03;;;2.49;72.39
26376;BME280;30544;42.196;24.336;2023-02-13T06:44:57;101245.69;;;2.72;70.43
26376;BME280;30544;42.196;24.336;2023-02-13T06:47:24;101232.25;;;2.79;71.27
26376;BME280;30544;42.196;24.336;2023-02-13T06:49:50;101242.75;;;2.93;70.60
26376;BME280;30544;42.196;24.336;2023-02-13T06:52:18;101245.09;;;3.15;68.80
26376;BME280;30544;42.196;24.336;2023-02-13T06:54:45;101250.22;;;3.38;68.65
26376;BME280;30544;42.196;24.336;2023-02-13T06:57:13;101245.34;;;3.49;68.46
26376;BME280;30544;42.196;24.336;2023-02-13T06:59:40;101242.28;;;3.52;67.89
26376;BME280;30544;42.196;24.336;2023-02-13T07:02:08;101243.19;;;3.53;69.18
26376;BME280;30544;42.196;24.336;2023-02-13T07:04:35;101246.09;;;3.69;66.90
26376;BME280;30544;42.196;24.336;2023-02-13T07:07:02;101240.72;;;3.77;68.41
26376;BME280;30544;42.196;24.336;2023-02-13T07:09:30;101242.59;;;3.95;67.47
26376;BME280;30544;42.196;24.336;2023-02-13T07:11:57;101243.50;;;3.68;67.17
26376;BME280;30544;42.196;24.336;2023-02-13T07:14:25;101245.19;;;3.78;66.75
26376;BME280;30544;42.196;24.336;2023-02-13T07:16:51;101248.59;;;3.62;67.86
26376;BME280;30544;42.196;24.336;2023-02-13T07:19:18;101247.44;;;3.65;67.52
26376;BME280;30544;42.196;24.336;2023-02-13T07:21:45;101256.78;;;3.72;68.27
26376;BME280;30544;42.196;24.336;2023-02-13T07:24:12;101257.66;;;3.90;67.06
26376;BME280;30544;42.196;24.336;2023-02-13T07:26:38;101249.00;;;3.85;68.47
26376;BME280;30544;42.196;24.336;2023-02-13T07:29:05;101252.91;;;3.65;68.25
26376;BME280;30544;42.196;24.336;2023-02-13T07:31:34;101248.84;;;3.69;67.94
26376;BME280;30544;42.196;24.336;2023-02-13T07:34:01;101253.22;;;4.07;67.18
26376;BME280;30544;42.196;24.336;2023-02-13T07:36:28;101248.78;;;4.14;66.28
26376;BME280;30544;42.196;24.336;2023-02-13T07:38:55;101243.38;;;4.40;65.79
26376;BME280;30544;42.196;24.336;2023-02-13T07:41:21;101246.09;;;4.84;64.99
26376;BME280;30544;42.196;24.336;2023-02-13T07:43:51;101242.59;;;4.74;64.08
26376;BME280;30544;42.196;24.336;2023-02-13T07:46:18;101235.44;;;4.37;65.51
26376;BME280;30544;42.196;24.336;2023-02-13T07:48:46;101239.06;;;4.64;64.23
26376;BME280;30544;42.196;24.336;2023-02-13T07:51:13;101237.31;;;5.06;63.82
26376;BME280;30544;42.196;24.336;2023-02-13T07:53:40;101239.06;;;5.16;63.93
26376;BME280;30544;42.196;24.336;2023-02-13T07:56:08;101222.03;;;5.20;63.75
26376;BME280;30544;42.196;24.336;2023-02-13T07:58:35;101227.59;;;5.28;62.86
26376;BME280;30544;42.196;24.336;2023-02-13T08:01:05;101228.72;;;5.09;63.73
26376;BME280;30544;42.196;24.336;2023-02-13T08:03:32;101230.16;;;5.22;63.30
26376;BME280;30544;42.196;24.336;2023-02-13T08:06:01;101238.09;;;5.83;61.81
26376;BME280;30544;42.196;24.336;2023-02-13T08:08:28;101220.06;;;5.89;61.06
26376;BME280;30544;42.196;24.336;2023-02-13T08:10:55;101226.81;;;6.19;59.68
26376;BME280;30544;42.196;24.336;2023-02-13T08:13:39;101227.94;;;5.76;61.89
26376;BME280;30544;42.196;24.336;2023-02-13T08:16:07;101218.66;;;5.85;60.21
26376;BME280;30544;42.196;24.336;2023-02-13T08:18:34;101214.16;;;5.84;60.66
26376;BME280;30544;42.196;24.336;2023-02-13T08:21:03;101213.41;;;6.40;59.09
26376;BME280;30544;42.196;24.336;2023-02-13T08:23:30;101220.47;;;6.59;58.32
26376;BME280;30544;42.196;24.336;2023-02-13T08:25:58;101214.22;;;6.00;58.97
26376;BME280;30544;42.196;24.336;2023-02-13T08:28:26;101215.97;;;6.17;58.54
26376;BME280;30544;42.196;24.336;2023-02-13T08:30:53;101209.41;;;6.18;58.99
26376;BME280;30544;42.196;24.336;2023-02-13T08:33:19;101206.81;;;6.00;59.55
26376;BME280;30544;42.196;24.336;2023-02-13T08:35:46;101201.69;;;6.46;58.34
26376;BME280;30544;42.196;24.336;2023-02-13T08:38:14;101196.69;;;6.17;57.97
26376;BME280;30544;42.196;24.336;2023-02-13T08:40:41;101201.16;;;6.43;57.61
26376;BME280;30544;42.196;24.336;2023-02-13T08:43:08;101199.44;;;6.58;56.89
26376;BME280;30544;42.196;24.336;2023-02-13T08:45:35;101194.56;;;6.68;56.44
26376;BME280;30544;42.196;24.336;2023-02-13T08:48:02;101196.81;;;7.28;55.61
26376;BME280;30544;42.196;24.336;2023-02-13T08:50:29;101189.97;;;6.44;57.09
26376;BME280;30544;42.196;24.336;2023-02-13T08:52:57;101185.81;;;6.56;56.96
26376;BME280;30544;42.196;24.336;2023-02-13T08:55:26;101200.56;;;6.96;56.37
26376;BME280;30544;42.196;24.336;2023-02-13T08:57:52;101199.72;;;6.71;56.38
26376;BME280;30544;42.196;24.336;2023-02-13T09:00:20;101186.84;;;7.19;55.33
26376;BME280;30544;42.196;24.336;2023-02-13T09:02:47;101177.50;;;7.28;54.78
26376;BME280;30544;42.196;24.336;2023-02-13T09:05:13;101186.22;;;7.09;54.95
26376;BME280;30544;42.196;24.336;2023-02-13T09:07:40;101172.09;;;7.43;54.87
26376;BME280;30544;42.196;24.336;2023-02-13T09:10:08;101165.53;;;7.67;54.64
26376;BME280;30544;42.196;24.336;2023-02-13T09:12:36;101176.38;;;7.06;55.71
26376;BME280;30544;42.196;24.336;2023-02-13T09:15:04;101171.75;;;7.69;54.46
26376;BME280;30544;42.196;24.336;2023-02-13T09:17:30;101165.28;;;8.07;52.51
26376;BME280;30544;42.196;24.336;2023-02-13T09:19:57;101168.50;;;7.34;54.26
26376;BME280;30544;42.196;24.336;2023-02-13T09:22:24;101165.38;;;8.14;53.22
26376;BME280;30544;42.196;24.336;2023-02-13T09:24:51;101169.38;;;7.89;52.66
26376;BME280;30544;42.196;24.336;2023-02-13T09:27:17;101162.38;;;7.47;54.28
26376;BME280;30544;42.196;24.336;2023-02-13T09:29:45;101161.53;;;7.46;53.74
26376;BME280;30544;42.196;24.336;2023-02-13T09:32:12;101154.38;;;7.60;53.60
26376;BME280;30544;42.196;24.336;2023-02-13T09:34:40;101157.03;;;7.99;52.08
26376;BME280;30544;42.196;24.336;2023-02-13T09:37:07;101150.13;;;8.18;51.80
26376;BME280;30544;42.196;24.336;2023-02-13T09:39:33;101146.47;;;8.63;51.37
26376;BME280;30544;42.196;24.336;2023-02-13T09:42:00;101149.41;;;8.01;51.75
26376;BME280;30544;42.196;24.336;2023-02-13T09:44:31;101142.41;;;8.36;50.94
26376;BME280;30544;42.196;24.336;2023-02-13T09:47:05;101142.47;;;8.05;51.69
26376;BME280;30544;42.196;24.336;2023-02-13T09:49:35;101139.34;;;8.08;52.31
26376;BME280;30544;42.196;24.336;2023-02-13T09:52:04;101131.56;;;8.50;50.32
26376;BME280;30544;42.196;24.336;2023-02-13T09:54:31;101126.34;;;8.69;49.96
26376;BME280;30544;42.196;24.336;2023-02-13T09:57:00;101127.28;;;8.47;50.05
26376;BME280;30544;42.196;24.336;2023-02-13T09:59:38;101128.63;;;8.28;51.09
26376;BME280;30544;42.196;24.336;2023-02-13T10:02:22;101113.94;;;8.95;50.10
26376;BME280;30544;42.196;24.336;2023-02-13T10:05:00;101106.00;;;9.07;48.41
26376;BME280;30544;42.196;24.336;2023-02-13T10:07:36;101106.78;;;9.00;48.38
26376;BME280;30544;42.196;24.336;2023-02-13T10:10:12;101091.69;;;9.03;49.10
26376;BME280;30544;42.196;24.336;2023-02-13T10:12:55;101081.34;;;9.26;48.51
26376;BME280;30544;42.196;24.336;2023-02-13T10:15:32;101077.81;;;9.18;48.24
26376;BME280;30544;42.196;24.336;2023-02-13T10:18:06;101069.16;;;9.06;48.06
26376;BME280;30544;42.196;24.336;2023-02-13T10:20:38;101063.72;;;8.98;48.02
26376;BME280;30544;42.196;24.336;2023-02-13T10:23:17;101055.53;;;8.90;47.62
26376;BME280;30544;42.196;24.336;2023-02-13T10:25:51;101048.84;;;8.99;47.63
26376;BME280;30544;42.196;24.336;2023-02-13T10:28:27;101044.16;;;9.35;47.96
26376;BME280;30544;42.196;24.336;2023-02-13T10:30:57;101039.06;;;9.18;48.32
26376;BME280;30544;42.196;24.336;2023-02-13T10:33:31;101029.03;;;9.74;46.50
26376;BME280;30544;42.196;24.336;2023-02-13T10:36:04;101030.59;;;9.41;46.34
26376;BME280;30544;42.196;24.336;2023-02-13T10:38:35;101025.19;;;9.54;45.43
26376;BME280;30544;42.196;24.336;2023-02-13T10:41:24;101011.25;;;9.69;44.47
26376;BME280;30544;42.196;24.336;2023-02-13T10:44:16;101012.19;;;9.76;44.61
26376;BME280;30544;42.196;24.336;2023-02-13T10:46:54;101004.63;;;10.19;44.08
26376;BME280;30544;42.196;24.336;2023-02-13T10:49:46;101011.84;;;9.64;44.83
26376;BME280;30544;42.196;24.336;2023-02-13T10:52:25;101002.03;;;10.11;44.75
26376;BME280;30544;42.196;24.336;2023-02-13T10:55:09;101003.09;;;10.10;44.01
26376;BME280;30544;42.196;24.336;2023-02-13T10:57:57;100997.56;;;10.16;43.82
26376;BME280;30544;42.196;24.336;2023-02-13T11:00:30;100993.56;;;9.70;44.58
26376;BME280;30544;42.196;24.336;2023-02-13T11:02:59;100987.06;;;10.33;43.20
26376;BME280;30544;42.196;24.336;2023-02-13T11:05:32;100977.28;;;10.09;42.45
26376;BME280;30544;42.196;24.336;2023-02-13T11:08:02;100979.66;;;10.19;40.79
26376;BME280;30544;42.196;24.336;2023-02-13T11:10:29;100971.66;;;10.03;41.46
26376;BME280;30544;42.196;24.336;2023-02-13T11:12:57;100964.63;;;10.28;40.23
26376;BME280;30544;42.196;24.336;2023-02-13T11:15:40;100967.59;;;9.99;40.99
26376;BME280;30544;42.196;24.336;2023-02-13T11:18:16;100961.25;;;10.39;40.20
26376;BME280;30544;42.196;24.336;2023-02-13T11:20:46;100955.78;;;10.18;41.47
26376;BME280;30544;42.196;24.336;2023-02-13T11:23:27;100950.47;;;10.58;40.54
26376;BME280;30544;42.196;24.336;2023-02-13T11:26:00;100952.72;;;10.82;40.08
26376;BME280;30544;42.196;24.336;2023-02-13T11:28:28;100945.13;;;10.49;39.63
26376;BME280;30544;42.196;24.336;2023-02-13T11:31:09;100941.56;;;10.69;40.79
26376;BME280;30544;42.196;24.336;2023-02-13T11:33:36;100936.56;;;11.05;39.42
26376;BME280;30544;42.196;24.336;2023-02-13T11:36:07;100925.84;;;10.89;39.79
26376;BME280;30544;42.196;24.336;2023-02-13T11:38:35;100921.59;;;11.00;39.18
26376;BME280;30544;42.196;24.336;2023-02-13T11:41:10;100924.38;;;10.93;39.32
26376;BME280;30544;42.196;24.336;2023-02-13T11:43:44;100924.13;;;10.81;39.11
26376;BME280;30544;42.196;24.336;2023-02-13T11:46:14;100915.69;;;10.55;37.54
26376;BME280;30544;42.196;24.336;2023-02-13T11:48:42;100917.19;;;10.58;38.63
26376;BME280;30544;42.196;24.336;2023-02-13T11:51:11;100900.84;;;10.89;38.48
26376;BME280;30544;42.196;24.336;2023-02-13T11:53:38;100903.13;;;10.66;38.67
26376;BME280;30544;42.196;24.336;2023-02-13T11:56:11;100891.91;;;10.94;38.20
26376;BME280;30544;42.196;24.336;2023-02-13T11:58:39;100888.19;;;10.73;37.21
26376;BME280;30544;42.196;24.336;2023-02-13T12:01:09;100881.44;;;11.02;36.93
26376;BME280;30544;42.196;24.336;2023-02-13T12:03:36;100873.16;;;11.15;36.36
26376;BME280;30544;42.196;24.336;2023-02-13T12:06:05;100867.81;;;11.40;36.20
26376;BME280;30544;42.196;24.336;2023-02-13T12:08:39;100862.47;;;11.12;36.89
26376;BME280;30544;42.196;24.336;2023-02-13T12:11:17;100859.28;;;11.29;36.87
26376;BME280;30544;42.196;24.336;2023-02-13T12:13:46;100855.41;;;11.50;36.18
26376;BME280;30544;42.196;24.336;2023-02-13T12:16:24;100855.22;;;11.44;35.29
26376;BME280;30544;42.196;24.336;2023-02-13T12:18:55;100843.41;;;11.75;34.20
26376;BME280;30544;42.196;24.336;2023-02-13T12:21:32;100835.53;;;11.59;33.45
26376;BME280;30544;42.196;24.336;2023-02-13T12:24:17;100832.53;;;11.54;34.25
26376;BME280;30544;42.196;24.336;2023-02-13T12:26:50;100843.66;;;11.01;32.74
26376;BME280;30544;42.196;24.336;2023-02-13T12:29:30;100843.44;;;11.23;32.55
26376;BME280;30544;42.196;24.336;2023-02-13T12:32:11;100835.34;;;11.48;33.01
26376;BME280;30544;42.196;24.336;2023-02-13T12:38:10;100831.00;;;11.71;31.90
26376;BME280;30544;42.196;24.336;2023-02-13T12:41:19;100826.53;;;11.70;31.71
26376;BME280;30544;42.196;24.336;2023-02-13T12:44:15;100816.00;;;11.99;31.55
26376;BME280;30544;42.196;24.336;2023-02-13T12:46:53;100816.50;;;11.56;32.13
26376;BME280;30544;42.196;24.336;2023-02-13T12:49:45;100813.50;;;11.64;32.68
26376;BME280;30544;42.196;24.336;2023-02-13T12:52:29;100807.31;;;11.62;32.89
26376;BME280;30544;42.196;24.336;2023-02-13T12:55:10;100808.75;;;11.98;32.60
26376;BME280;30544;42.196;24.336;2023-02-13T12:57:51;100798.09;;;11.82;31.94
26376;BME280;30544;42.196;24.336;2023-02-13T13:00:36;100801.06;;;11.87;32.57
26376;BME280;30544;42.196;24.336;2023-02-13T13:03:30;100802.38;;;11.84;32.27
26376;BME280;30544;42.196;24.336;2023-02-13T13:06:09;100802.69;;;12.14;31.75
26376;BME280;30544;42.196;24.336;2023-02-13T13:09:11;100792.88;;;12.05;31.68
26376;BME280;30544;42.196;24.336;2023-02-13T13:11:57;100800.28;;;11.40;31.94
26376;BME280;30544;42.196;24.336;2023-02-13T13:14:38;100793.91;;;11.26;33.09